createdAt,value
2017-10-22T00:01:23.995Z,9.10
2017-10-22T00:01:28.995Z,9.38
2017-10-22T00:01:34.028Z,10.27
2017-10-22T00:01:38.268Z,10.37
2017-10-22T00:01:42.520Z,10.40
2017-10-22T00:01:47.563Z,10.60
2017-10-22T00:01:51.806Z,11.13
2017-10-22T00:01:56.048Z,10.95
2017-10-22T00:02:00.292Z,10.35
2017-10-22T00:02:04.549Z,10.63
2017-10-22T00:02:08.864Z,10.65
2017-10-22T00:02:13.096Z,10.10
2017-10-22T00:02:17.364Z,10.10
2017-10-22T00:02:21.629Z,10.20
2017-10-22T00:02:25.879Z,10.10
2017-10-22T00:02:30.133Z,9.35
2017-10-22T00:02:34.375Z,9.30
2017-10-22T00:02:38.625Z,9.90
2017-10-22T00:02:43.633Z,9.25
2017-10-22T00:02:47.885Z,9.33
2017-10-22T00:02:52.170Z,9.05
2017-10-22T00:02:57.171Z,8.53
2017-10-22T00:03:01.504Z,8.60
2017-10-22T00:03:06.569Z,9.30
2017-10-22T00:03:10.841Z,9.10
2017-10-22T00:03:15.125Z,8.95
2017-10-22T00:03:19.367Z,8.80
2017-10-22T00:03:23.689Z,8.70
2017-10-22T00:03:28.727Z,9.40
2017-10-22T00:03:33.734Z,9.57
2017-10-22T00:03:38.727Z,9.80
2017-10-22T00:03:43.066Z,10.43
2017-10-22T00:03:47.355Z,10.70
2017-10-22T00:03:52.363Z,10.60
2017-10-22T00:03:57.464Z,11.20
2017-10-22T00:04:01.707Z,11.27
2017-10-22T00:04:06.716Z,10.40
2017-10-22T00:04:10.991Z,9.93
2017-10-22T00:04:15.225Z,9.25
2017-10-22T00:04:19.485Z,9.70
2017-10-22T00:04:23.729Z,10.05
2017-10-22T00:04:28.004Z,9.23
2017-10-22T00:04:33.039Z,8.80
2017-10-22T00:04:38.078Z,8.40
2017-10-22T00:04:42.312Z,8.00
2017-10-22T00:04:46.554Z,8.00
2017-10-22T00:04:50.786Z,7.87
2017-10-22T00:04:55.031Z,7.50
2017-10-22T00:04:59.272Z,7.90
2017-10-22T00:05:03.540Z,8.10
2017-10-22T00:05:08.563Z,8.10
2017-10-22T00:05:13.587Z,8.73
2017-10-22T00:05:18.603Z,8.70
2017-10-22T00:05:23.640Z,8.17
2017-10-22T00:05:28.660Z,8.50
2017-10-22T00:05:32.923Z,8.33
2017-10-22T00:05:37.235Z,8.35
2017-10-22T00:05:42.252Z,8.70
2017-10-22T00:05:47.251Z,8.00
2017-10-22T00:05:51.571Z,8.60
2017-10-22T00:05:56.595Z,8.80
2017-10-22T00:06:01.620Z,8.00
2017-10-22T00:06:07.440Z,8.27
2017-10-22T00:06:12.469Z,8.40
2017-10-22T00:06:17.517Z,8.37
2017-10-22T00:06:21.763Z,8.17
2017-10-22T00:06:26.015Z,7.80
2017-10-22T00:06:30.265Z,8.05
2017-10-22T00:06:34.528Z,8.13
2017-10-22T00:06:38.745Z,8.00
2017-10-22T00:06:42.973Z,7.70
2017-10-22T00:06:47.987Z,8.10
2017-10-22T00:06:52.222Z,8.10
2017-10-22T00:06:56.469Z,8.53
2017-10-22T00:07:00.745Z,8.50
2017-10-22T00:07:04.996Z,8.25
2017-10-22T00:07:09.407Z,8.00
2017-10-22T00:07:13.700Z,8.55
2017-10-22T00:07:18.702Z,8.50
2017-10-22T00:07:22.990Z,8.60
2017-10-22T00:07:27.242Z,8.57
2017-10-22T00:07:31.499Z,8.20
2017-10-22T00:07:35.739Z,8.65
2017-10-22T00:07:40.726Z,8.40
2017-10-22T00:07:44.968Z,7.80
2017-10-22T00:07:49.220Z,7.33
2017-10-22T00:07:53.487Z,6.80
2017-10-22T00:07:57.784Z,6.75
2017-10-22T00:08:02.048Z,6.60
2017-10-22T00:08:07.045Z,7.40
2017-10-22T00:08:11.349Z,7.33
2017-10-22T00:08:15.582Z,8.25
2017-10-22T00:08:19.867Z,8.85
2017-10-22T00:08:24.894Z,9.07
2017-10-22T00:08:29.151Z,9.50
2017-10-22T00:08:33.400Z,9.50
2017-10-22T00:08:37.695Z,9.05
2017-10-22T00:08:42.703Z,9.40
2017-10-22T00:08:47.749Z,9.93
2017-10-22T00:08:52.842Z,10.53
2017-10-22T00:08:57.893Z,10.67
2017-10-22T00:09:02.200Z,10.83
2017-10-22T00:09:06.434Z,10.35
2017-10-22T00:09:10.708Z,9.57
2017-10-22T00:09:14.943Z,9.10
2017-10-22T00:09:19.204Z,8.95
2017-10-22T00:09:23.430Z,9.65
2017-10-22T00:09:27.678Z,9.50
2017-10-22T00:09:31.931Z,9.70
2017-10-22T00:09:36.171Z,9.55
2017-10-22T00:09:40.406Z,9.25
2017-10-22T00:09:44.717Z,9.37
2017-10-22T00:09:48.964Z,9.25
2017-10-22T00:09:54.013Z,9.30
2017-10-22T00:09:58.277Z,9.10
2017-10-22T00:10:02.571Z,10.23
2017-10-22T00:10:06.781Z,10.95
2017-10-22T00:10:11.793Z,11.15
2017-10-22T00:10:16.796Z,10.97
2017-10-22T00:10:21.814Z,10.60
2017-10-22T00:10:26.064Z,10.20
2017-10-22T00:10:30.334Z,10.43
2017-10-22T00:10:35.365Z,10.65
2017-10-22T00:10:39.621Z,11.03
2017-10-22T00:10:43.866Z,11.20
2017-10-22T00:10:48.126Z,11.15
2017-10-22T00:10:52.396Z,11.03
2017-10-22T00:10:56.626Z,11.10
2017-10-22T00:11:00.892Z,10.20
2017-10-22T00:11:05.159Z,8.95
2017-10-22T00:11:10.376Z,8.85
2017-10-22T00:11:15.398Z,8.63
2017-10-22T00:11:20.405Z,8.17
2017-10-22T00:11:25.414Z,8.70
2017-10-22T00:11:29.677Z,8.10
2017-10-22T00:11:33.905Z,7.70
2017-10-22T00:11:38.287Z,7.97
2017-10-22T00:11:42.525Z,7.65
2017-10-22T00:11:47.533Z,6.75
2017-10-22T00:11:51.772Z,6.73
2017-10-22T00:11:56.028Z,6.80
2017-10-22T00:12:00.253Z,7.30
2017-10-22T00:12:05.295Z,7.40
2017-10-22T00:12:09.542Z,7.40
2017-10-22T00:12:13.800Z,7.90
2017-10-22T00:12:18.066Z,8.07
2017-10-22T00:12:23.080Z,7.60
2017-10-22T00:12:28.100Z,7.97
2017-10-22T00:12:32.339Z,8.70
2017-10-22T00:12:36.573Z,8.70
2017-10-22T00:12:41.589Z,9.77
2017-10-22T00:12:45.834Z,9.67
2017-10-22T00:12:50.834Z,9.45
2017-10-22T00:12:55.859Z,9.27
2017-10-22T00:13:00.866Z,9.37
2017-10-22T00:13:05.136Z,9.37
2017-10-22T00:13:09.388Z,9.40
2017-10-22T00:13:13.617Z,9.13
2017-10-22T00:13:17.933Z,9.55
2017-10-22T00:13:22.207Z,9.60
2017-10-22T00:13:26.431Z,9.20
2017-10-22T00:13:30.780Z,8.63
2017-10-22T00:13:35.791Z,8.95
2017-10-22T00:13:40.803Z,9.27
2017-10-22T00:13:45.032Z,9.97
2017-10-22T00:13:49.281Z,10.10
2017-10-22T00:13:53.542Z,10.50
2017-10-22T00:13:58.617Z,9.95
2017-10-22T00:14:02.859Z,10.30
2017-10-22T00:14:07.105Z,10.25
2017-10-22T00:14:11.477Z,9.85
2017-10-22T00:14:15.714Z,10.17
2017-10-22T00:14:19.969Z,9.80
2017-10-22T00:14:24.252Z,10.05
2017-10-22T00:14:29.264Z,12.10
2017-10-22T00:14:34.261Z,11.80
2017-10-22T00:14:39.318Z,10.37
2017-10-22T00:14:43.578Z,10.07
2017-10-22T00:14:47.832Z,10.15
2017-10-22T00:14:52.079Z,10.30
2017-10-22T00:14:56.337Z,11.20
2017-10-22T00:15:00.597Z,11.10
2017-10-22T00:15:04.893Z,11.15
2017-10-22T00:15:09.928Z,11.13
2017-10-22T00:15:14.200Z,10.53
2017-10-22T00:15:19.216Z,10.35
2017-10-22T00:15:23.463Z,10.70
2017-10-22T00:15:28.478Z,8.65
2017-10-22T00:15:32.723Z,8.87
2017-10-22T00:15:36.981Z,8.80
2017-10-22T00:15:41.239Z,8.57
2017-10-22T00:15:45.471Z,9.00
2017-10-22T00:15:49.710Z,8.85
2017-10-22T00:15:53.944Z,8.20
2017-10-22T00:15:58.958Z,7.55
2017-10-22T00:16:03.219Z,7.43
2017-10-22T00:16:07.500Z,7.85
2017-10-22T00:16:11.743Z,7.80
2017-10-22T00:16:15.992Z,7.63
2017-10-22T00:16:21.019Z,7.15
2017-10-22T00:16:25.248Z,7.07
2017-10-22T00:16:29.486Z,7.05
2017-10-22T00:16:34.503Z,7.10
2017-10-22T00:16:38.737Z,7.23
2017-10-22T00:16:42.999Z,6.50
2017-10-22T00:16:47.985Z,6.35
2017-10-22T00:16:52.237Z,6.40
2017-10-22T00:16:56.509Z,6.35
2017-10-22T00:17:00.755Z,6.60
2017-10-22T00:17:05.039Z,6.35
2017-10-22T00:17:09.272Z,6.50
2017-10-22T00:17:13.507Z,7.85
2017-10-22T00:17:17.767Z,8.63
2017-10-22T00:17:22.856Z,8.60
2017-10-22T00:17:27.150Z,8.63
2017-10-22T00:17:32.167Z,8.75
2017-10-22T00:17:37.199Z,8.43
2017-10-22T00:17:41.465Z,8.65
2017-10-22T00:17:46.476Z,8.90
2017-10-22T00:17:50.730Z,9.20
2017-10-22T00:17:54.966Z,9.10
2017-10-22T00:17:59.207Z,8.80
2017-10-22T00:18:04.218Z,8.80
2017-10-22T00:18:09.216Z,8.63
2017-10-22T00:18:13.471Z,7.60
2017-10-22T00:18:17.743Z,7.05
2017-10-22T00:18:21.987Z,7.60
2017-10-22T00:18:26.252Z,7.40
2017-10-22T00:18:31.250Z,7.37
2017-10-22T00:18:36.268Z,7.23
2017-10-22T00:18:41.274Z,7.03
2017-10-22T00:18:45.505Z,6.83
2017-10-22T00:18:49.760Z,5.85
2017-10-22T00:18:54.003Z,6.10
2017-10-22T00:18:58.249Z,7.27
2017-10-22T00:19:02.493Z,7.10
2017-10-22T00:19:07.570Z,6.95
2017-10-22T00:19:11.862Z,6.63
2017-10-22T00:19:16.107Z,6.90
2017-10-22T00:19:20.367Z,6.60
2017-10-22T00:19:24.742Z,6.85
2017-10-22T00:19:29.001Z,6.90
2017-10-22T00:19:34.013Z,6.90
2017-10-22T00:19:38.257Z,6.90
2017-10-22T00:19:42.496Z,6.95
2017-10-22T00:19:46.747Z,6.80
2017-10-22T00:19:50.985Z,8.00
2017-10-22T00:19:55.221Z,7.20
2017-10-22T00:20:00.248Z,7.35
2017-10-22T00:20:04.477Z,7.50
2017-10-22T00:20:08.715Z,8.10
2017-10-22T00:20:12.960Z,8.40
2017-10-22T00:20:17.188Z,9.15
2017-10-22T00:20:21.430Z,8.95
2017-10-22T00:20:25.711Z,9.10
2017-10-22T00:20:29.979Z,9.20
2017-10-22T00:20:34.296Z,9.20
2017-10-22T00:20:38.530Z,9.25
2017-10-22T00:20:42.772Z,9.63
2017-10-22T00:20:47.050Z,9.55
2017-10-22T00:20:52.060Z,8.95
2017-10-22T00:20:57.070Z,9.03
2017-10-22T00:21:02.135Z,9.10
2017-10-22T00:21:06.415Z,8.70
2017-10-22T00:21:11.401Z,8.13
2017-10-22T00:21:15.678Z,7.30
2017-10-22T00:21:19.971Z,7.45
2017-10-22T00:21:24.212Z,8.95
2017-10-22T00:21:28.501Z,10.20
2017-10-22T00:21:32.794Z,10.77
2017-10-22T00:21:37.059Z,11.15
2017-10-22T00:21:41.339Z,10.90
2017-10-22T00:21:45.699Z,11.43
2017-10-22T00:21:49.903Z,11.50
2017-10-22T00:21:54.146Z,11.00
2017-10-22T00:21:58.384Z,10.90
2017-10-22T00:22:02.643Z,11.45
2017-10-22T00:22:06.919Z,11.90
2017-10-22T00:22:12.027Z,12.00
2017-10-22T00:22:16.257Z,12.00
2017-10-22T00:22:21.274Z,11.70
2017-10-22T00:22:26.275Z,10.17
2017-10-22T00:22:31.283Z,9.00
2017-10-22T00:22:35.519Z,8.73
2017-10-22T00:22:39.768Z,9.15
2017-10-22T00:22:44.003Z,8.50
2017-10-22T00:22:49.034Z,8.37
2017-10-22T00:22:54.004Z,8.20
2017-10-22T00:22:58.276Z,8.17
2017-10-22T00:23:02.550Z,8.05
2017-10-22T00:23:07.562Z,8.35
2017-10-22T00:23:11.794Z,8.45
2017-10-22T00:23:16.030Z,8.27
2017-10-22T00:23:20.277Z,7.65
2017-10-22T00:23:24.537Z,7.50
2017-10-22T00:23:28.787Z,7.40
2017-10-22T00:23:33.032Z,7.20
2017-10-22T00:23:37.283Z,6.55
2017-10-22T00:23:41.587Z,6.95
2017-10-22T00:23:45.829Z,8.00
2017-10-22T00:23:50.082Z,8.20
2017-10-22T00:23:54.305Z,8.50
2017-10-22T00:23:58.584Z,8.15
2017-10-22T00:24:02.833Z,8.07
2017-10-22T00:24:07.070Z,7.90
2017-10-22T00:24:11.318Z,7.75
2017-10-22T00:24:15.558Z,7.85
2017-10-22T00:24:20.556Z,7.97
2017-10-22T00:24:24.816Z,7.30
2017-10-22T00:24:29.071Z,7.25
2017-10-22T00:24:34.120Z,7.35
2017-10-22T00:24:38.357Z,7.27
2017-10-22T00:24:42.598Z,6.95
2017-10-22T00:24:47.641Z,6.00
2017-10-22T00:24:51.887Z,6.07
2017-10-22T00:24:56.132Z,6.15
2017-10-22T00:25:00.375Z,6.60
2017-10-22T00:25:04.616Z,6.00
2017-10-22T00:25:09.636Z,6.45
2017-10-22T00:25:14.662Z,6.83
2017-10-22T00:25:18.987Z,6.67
2017-10-22T00:25:24.010Z,6.85
2017-10-22T00:25:28.996Z,7.27
2017-10-22T00:25:33.309Z,7.30
2017-10-22T00:25:37.561Z,7.40
2017-10-22T00:25:41.803Z,7.55
2017-10-22T00:25:46.123Z,7.70
2017-10-22T00:25:50.352Z,7.75
2017-10-22T00:25:54.623Z,7.63
2017-10-22T00:25:58.904Z,7.40
2017-10-22T00:26:03.156Z,7.55
2017-10-22T00:26:07.413Z,6.67
2017-10-22T00:26:11.690Z,7.10
2017-10-22T00:26:16.694Z,7.80
2017-10-22T00:26:20.981Z,8.10
2017-10-22T00:26:25.276Z,7.70
2017-10-22T00:26:30.335Z,7.40
2017-10-22T00:26:35.340Z,7.60
2017-10-22T00:26:40.909Z,8.30
2017-10-22T00:26:46.803Z,8.18
2017-10-22T00:26:51.818Z,8.33
2017-10-22T00:26:56.060Z,8.73
2017-10-22T00:27:00.327Z,9.00
2017-10-22T00:27:05.406Z,9.05
2017-10-22T00:27:09.652Z,9.17
2017-10-22T00:27:14.654Z,8.30
2017-10-22T00:27:18.917Z,8.23
2017-10-22T00:27:23.166Z,8.20
2017-10-22T00:27:27.397Z,8.45
2017-10-22T00:27:31.707Z,8.35
2017-10-22T00:27:35.950Z,8.30
2017-10-22T00:27:40.211Z,8.10
2017-10-22T00:27:44.471Z,8.00
2017-10-22T00:27:48.741Z,8.10
2017-10-22T00:27:53.055Z,7.90
2017-10-22T00:27:57.328Z,7.75
2017-10-22T00:28:01.581Z,7.90
2017-10-22T00:28:05.900Z,9.30
2017-10-22T00:28:10.149Z,9.60
2017-10-22T00:28:15.174Z,9.35
2017-10-22T00:28:19.443Z,9.37
2017-10-22T00:28:23.716Z,9.60
2017-10-22T00:28:27.961Z,9.60
2017-10-22T00:28:32.204Z,10.15
2017-10-22T00:28:36.445Z,10.00
2017-10-22T00:28:40.699Z,9.70
2017-10-22T00:28:45.725Z,9.60
2017-10-22T00:28:49.994Z,9.90
2017-10-22T00:28:54.273Z,9.80
2017-10-22T00:28:58.511Z,9.55
2017-10-22T00:29:03.502Z,8.93
2017-10-22T00:29:07.758Z,7.70
2017-10-22T00:29:12.023Z,6.80
2017-10-22T00:29:17.148Z,6.65
2017-10-22T00:29:22.152Z,6.30
2017-10-22T00:29:26.413Z,7.07
2017-10-22T00:29:30.772Z,7.20
2017-10-22T00:29:35.812Z,7.25
2017-10-22T00:29:40.799Z,7.50
2017-10-22T00:29:45.846Z,7.30
2017-10-22T00:29:50.087Z,6.90
2017-10-22T00:29:54.331Z,6.70
2017-10-22T00:29:59.421Z,6.70
2017-10-22T00:30:03.673Z,7.00
2017-10-22T00:30:08.007Z,7.40
2017-10-22T00:30:12.264Z,8.35
2017-10-22T00:30:16.497Z,8.50
2017-10-22T00:30:20.736Z,9.05
2017-10-22T00:30:25.017Z,9.05
2017-10-22T00:30:30.097Z,8.70
2017-10-22T00:30:34.356Z,8.53
2017-10-22T00:30:42.094Z,8.27
2017-10-22T00:30:47.441Z,8.76
2017-10-22T00:30:51.682Z,8.70
2017-10-22T00:30:55.902Z,9.10
2017-10-22T00:31:00.866Z,9.60
2017-10-22T00:31:05.093Z,9.30
2017-10-22T00:31:09.335Z,9.30
2017-10-22T00:31:13.652Z,8.90
2017-10-22T00:31:17.927Z,8.95
2017-10-22T00:31:22.208Z,8.20
2017-10-22T00:31:26.440Z,7.80
2017-10-22T00:31:30.669Z,7.60
2017-10-22T00:31:34.917Z,8.10
2017-10-22T00:31:39.247Z,8.40
2017-10-22T00:31:43.463Z,7.75
2017-10-22T00:31:47.686Z,7.75
2017-10-22T00:31:52.688Z,7.70
2017-10-22T00:31:56.939Z,7.77
2017-10-22T00:32:01.187Z,7.20
2017-10-22T00:32:05.504Z,7.25
2017-10-22T00:32:09.888Z,6.75
2017-10-22T00:32:16.517Z,6.80
2017-10-22T00:32:20.762Z,6.70
2017-10-22T00:32:25.930Z,7.55
2017-10-22T00:32:30.177Z,7.53
2017-10-22T00:32:34.427Z,6.95
2017-10-22T00:32:41.671Z,6.73
2017-10-22T00:32:46.657Z,7.00
2017-10-22T00:32:50.903Z,7.20
2017-10-22T00:32:55.183Z,6.75
2017-10-22T00:33:00.195Z,6.90
2017-10-22T00:33:05.256Z,7.50
2017-10-22T00:33:09.509Z,7.50
2017-10-22T00:33:13.783Z,7.33
2017-10-22T00:33:18.064Z,8.40
2017-10-22T00:33:22.333Z,8.40
2017-10-22T00:33:26.679Z,7.83
2017-10-22T00:33:30.972Z,8.90
2017-10-22T00:33:35.225Z,9.40
2017-10-22T00:33:40.257Z,9.50
2017-10-22T00:33:44.511Z,9.70
2017-10-22T00:33:48.749Z,9.50
2017-10-22T00:33:53.764Z,9.45
2017-10-22T00:33:58.807Z,9.87
2017-10-22T00:34:03.791Z,9.57
2017-10-22T00:34:08.812Z,9.70
2017-10-22T00:34:13.836Z,10.30
2017-10-22T00:34:18.855Z,10.67
2017-10-22T00:34:23.104Z,10.57
2017-10-22T00:34:27.360Z,10.40
2017-10-22T00:34:32.369Z,9.60
2017-10-22T00:34:37.387Z,8.73
2017-10-22T00:34:42.385Z,8.50
2017-10-22T00:34:46.641Z,8.40
2017-10-22T00:34:50.878Z,8.80
2017-10-22T00:34:55.113Z,8.80
2017-10-22T00:35:00.156Z,8.80
2017-10-22T00:35:04.403Z,8.77
2017-10-22T00:35:08.652Z,9.05
2017-10-22T00:35:13.047Z,8.50
2017-10-22T00:35:17.816Z,7.30
2017-10-22T00:35:22.945Z,7.33
2017-10-22T00:35:27.188Z,7.73
2017-10-22T00:35:31.439Z,7.65
2017-10-22T00:35:36.456Z,8.10
2017-10-22T00:35:40.694Z,7.97
2017-10-22T00:35:44.977Z,8.10
2017-10-22T00:35:49.244Z,8.15
2017-10-22T00:35:53.481Z,8.10
2017-10-22T00:35:58.492Z,7.95
2017-10-22T00:36:02.751Z,7.83
2017-10-22T00:36:06.986Z,7.93
2017-10-22T00:36:11.272Z,8.05
2017-10-22T00:36:15.517Z,8.70
2017-10-22T00:36:19.811Z,9.43
2017-10-22T00:36:24.794Z,9.20
2017-10-22T00:36:29.039Z,9.13
2017-10-22T00:36:33.275Z,9.25
2017-10-22T00:36:37.574Z,9.85
2017-10-22T00:36:41.835Z,10.13
2017-10-22T00:36:46.096Z,10.35
2017-10-22T00:36:50.318Z,11.05
2017-10-22T00:36:55.361Z,11.50
2017-10-22T00:36:59.619Z,11.55
2017-10-22T00:37:03.890Z,10.65
2017-10-22T00:37:08.146Z,10.35
2017-10-22T00:37:13.213Z,10.40
2017-10-22T00:37:17.462Z,9.47
2017-10-22T00:37:21.746Z,9.27
2017-10-22T00:37:26.778Z,9.40
2017-10-22T00:37:31.082Z,9.87
2017-10-22T00:37:36.090Z,10.55
2017-10-22T00:37:41.115Z,10.77
2017-10-22T00:37:45.349Z,10.20
2017-10-22T00:37:49.634Z,9.60
2017-10-22T00:37:54.685Z,8.95
2017-10-22T00:37:58.938Z,9.10
2017-10-22T00:38:03.177Z,9.55
2017-10-22T00:38:07.428Z,10.37
2017-10-22T00:38:11.690Z,10.35
2017-10-22T00:38:15.925Z,10.50
2017-10-22T00:38:21.013Z,10.55
2017-10-22T00:38:25.231Z,10.55
2017-10-22T00:38:29.500Z,9.95
2017-10-22T00:38:33.808Z,9.00
2017-10-22T00:38:38.128Z,8.20
2017-10-22T00:38:42.439Z,8.07
2017-10-22T00:38:46.686Z,8.05
2017-10-22T00:38:50.967Z,8.30
2017-10-22T00:38:55.248Z,8.50
2017-10-22T00:39:00.328Z,8.00
2017-10-22T00:39:04.565Z,7.67
2017-10-22T00:39:09.595Z,7.15
2017-10-22T00:39:14.654Z,6.87
2017-10-22T00:39:18.884Z,6.70
2017-10-22T00:39:23.154Z,6.90
2017-10-22T00:39:27.393Z,6.60
2017-10-22T00:39:32.424Z,6.55
2017-10-22T00:39:37.451Z,6.50
2017-10-22T00:39:41.665Z,6.97
2017-10-22T00:39:45.897Z,7.37
2017-10-22T00:39:50.138Z,6.90
2017-10-22T00:39:55.172Z,6.60
2017-10-22T00:39:59.385Z,6.67
2017-10-22T00:40:03.644Z,6.90
2017-10-22T00:40:07.893Z,7.13
2017-10-22T00:40:12.139Z,7.20
2017-10-22T00:40:16.468Z,7.25
2017-10-22T00:40:21.482Z,7.10
2017-10-22T00:40:26.520Z,6.85
2017-10-22T00:40:31.516Z,6.83
2017-10-22T00:40:36.555Z,7.00
2017-10-22T00:40:40.806Z,6.33
2017-10-22T00:40:45.037Z,6.45
2017-10-22T00:40:50.049Z,6.40
2017-10-22T00:40:54.352Z,6.47
2017-10-22T00:40:59.346Z,6.70
2017-10-22T00:41:03.645Z,6.60
2017-10-22T00:41:07.905Z,6.45
2017-10-22T00:41:12.139Z,7.10
2017-10-22T00:41:16.435Z,7.35
2017-10-22T00:41:21.218Z,7.50
2017-10-22T00:41:26.207Z,7.70
2017-10-22T00:41:31.224Z,7.90
2017-10-22T00:41:36.287Z,8.40
2017-10-22T00:41:40.560Z,8.83
2017-10-22T00:41:44.801Z,8.40
2017-10-22T00:41:49.034Z,8.65
2017-10-22T00:41:54.082Z,9.70
2017-10-22T00:41:58.329Z,10.60
2017-10-22T00:42:02.589Z,10.95
2017-10-22T00:42:06.870Z,11.05
2017-10-22T00:42:11.883Z,10.35
2017-10-22T00:42:16.146Z,10.37
2017-10-22T00:42:21.392Z,11.10
2017-10-22T00:42:25.638Z,10.80
2017-10-22T00:42:29.886Z,10.40
2017-10-22T00:42:34.906Z,10.05
2017-10-22T00:42:39.148Z,10.40
2017-10-22T00:42:43.434Z,10.30
2017-10-22T00:42:48.454Z,10.15
2017-10-22T00:42:53.471Z,9.57
2017-10-22T00:42:57.710Z,8.60
2017-10-22T00:43:01.947Z,7.85
2017-10-22T00:43:06.227Z,7.83
2017-10-22T00:43:11.327Z,7.90
2017-10-22T00:43:15.591Z,7.70
2017-10-22T00:43:20.611Z,7.00
2017-10-22T00:44:32.245Z,7.75
2017-10-22T00:44:37.394Z,7.90
2017-10-22T00:44:42.422Z,8.00
2017-10-22T00:44:46.686Z,8.10
2017-10-22T00:44:50.930Z,8.85
2017-10-22T00:44:55.175Z,8.20
2017-10-22T00:44:59.396Z,8.10
2017-10-22T00:45:03.680Z,8.27
2017-10-22T00:45:07.962Z,8.50
2017-10-22T00:45:12.192Z,8.80
2017-10-22T00:45:16.457Z,8.85
2017-10-22T00:45:20.710Z,8.83
2017-10-22T00:45:25.005Z,8.70
2017-10-22T00:45:29.266Z,9.00
2017-10-22T00:45:33.522Z,8.70
2017-10-22T00:45:37.867Z,8.60
2017-10-22T00:45:42.179Z,8.70
2017-10-22T00:45:46.419Z,9.00
2017-10-22T00:45:51.633Z,8.35
2017-10-22T00:45:55.920Z,8.70
2017-10-22T00:46:00.171Z,8.85
2017-10-22T00:46:04.423Z,8.73
2017-10-22T00:46:08.706Z,8.45
2017-10-22T00:46:12.912Z,7.70
2017-10-22T00:46:17.172Z,8.15
2017-10-22T00:46:21.500Z,8.27
2017-10-22T00:46:26.503Z,8.95
2017-10-22T00:46:30.751Z,8.50
2017-10-22T00:46:35.048Z,8.10
2017-10-22T00:46:39.303Z,7.93
2017-10-22T00:46:43.533Z,8.20
2017-10-22T00:46:47.866Z,8.30
2017-10-22T00:46:52.110Z,9.30
2017-10-22T00:46:56.402Z,9.45
2017-10-22T00:47:00.633Z,9.85
2017-10-22T00:47:04.876Z,10.15
2017-10-22T00:47:09.220Z,10.33
2017-10-22T00:47:14.257Z,10.70
2017-10-22T00:47:18.509Z,10.47
2017-10-22T00:47:23.504Z,10.70
2017-10-22T00:47:28.528Z,10.43
2017-10-22T00:47:33.546Z,10.53
2017-10-22T00:47:37.915Z,10.57
2017-10-22T00:47:42.218Z,9.90
2017-10-22T00:47:46.461Z,9.80
2017-10-22T00:47:50.750Z,8.80
2017-10-22T00:47:55.055Z,7.90
2017-10-22T00:47:59.297Z,7.85
2017-10-22T00:48:03.544Z,7.45
2017-10-22T00:48:07.789Z,7.67
2017-10-22T00:48:12.042Z,7.30
2017-10-22T00:48:17.070Z,7.25
2017-10-22T00:48:22.088Z,7.77
2017-10-22T00:48:26.351Z,7.67
2017-10-22T00:48:30.581Z,8.25
2017-10-22T00:48:35.613Z,8.23
2017-10-22T00:48:39.861Z,8.47
2017-10-22T00:48:44.121Z,9.05
2017-10-22T00:48:48.436Z,9.00
2017-10-22T00:48:52.699Z,9.77
2017-10-22T00:48:56.933Z,9.65
2017-10-22T00:49:01.223Z,9.30
2017-10-22T00:49:06.230Z,9.10
2017-10-22T00:49:11.279Z,8.87
2017-10-22T00:49:15.508Z,9.55
2017-10-22T00:49:19.747Z,9.35
2017-10-22T00:49:24.768Z,9.20
2017-10-22T00:49:29.015Z,8.77
2017-10-22T00:49:33.255Z,8.40
2017-10-22T00:49:38.284Z,8.33
2017-10-22T00:49:43.282Z,7.90
2017-10-22T00:49:47.559Z,7.83
2017-10-22T00:49:51.840Z,7.50
2017-10-22T00:49:56.091Z,7.20
2017-10-22T00:50:00.337Z,7.27
2017-10-22T00:50:04.573Z,8.20
2017-10-22T00:50:08.798Z,7.95
2017-10-22T00:50:13.804Z,7.70
2017-10-22T00:50:18.052Z,8.13
2017-10-22T00:50:22.285Z,7.83
2017-10-22T00:50:26.560Z,7.75
2017-10-22T00:50:30.805Z,7.90
2017-10-22T00:50:35.066Z,8.00
2017-10-22T00:50:39.305Z,8.03
2017-10-22T00:50:43.551Z,7.75
2017-10-22T00:50:47.831Z,7.35
2017-10-22T00:50:52.096Z,7.40
2017-10-22T00:50:56.351Z,7.90
2017-10-22T00:51:00.597Z,7.90
2017-10-22T00:51:04.826Z,7.15
2017-10-22T00:51:09.082Z,7.60
2017-10-22T00:51:13.317Z,7.25
2017-10-22T00:51:17.571Z,6.25
2017-10-22T00:51:21.876Z,6.30
2017-10-22T00:51:26.149Z,6.63
2017-10-22T00:51:30.369Z,6.40
2017-10-22T00:51:34.684Z,6.45
2017-10-22T00:51:38.911Z,7.27
2017-10-22T00:51:43.155Z,7.50
2017-10-22T00:51:47.515Z,7.50
2017-10-22T00:51:53.331Z,7.50
2017-10-22T00:51:57.705Z,7.12
2017-10-22T00:52:01.966Z,6.83
2017-10-22T00:52:06.978Z,6.10
2017-10-22T00:52:11.273Z,5.93
2017-10-22T00:52:16.340Z,5.90
2017-10-22T00:52:20.567Z,6.30
2017-10-22T00:52:24.837Z,6.70
2017-10-22T00:52:29.057Z,6.70
2017-10-22T00:52:33.289Z,6.90
2017-10-22T00:52:37.544Z,6.40
2017-10-22T00:52:41.931Z,6.40
2017-10-22T00:52:46.160Z,6.35
2017-10-22T00:52:50.433Z,6.20
2017-10-22T00:52:54.695Z,6.23
2017-10-22T00:52:58.961Z,7.25
2017-10-22T00:53:03.202Z,7.30
2017-10-22T00:53:08.272Z,7.70
2017-10-22T00:53:12.523Z,8.18
2017-10-22T00:53:17.517Z,7.90
2017-10-22T00:53:21.840Z,7.73
2017-10-22T00:53:26.126Z,7.35
2017-10-22T00:53:30.411Z,7.40
2017-10-22T00:53:35.519Z,7.10
2017-10-22T00:53:39.799Z,6.80
2017-10-22T00:53:44.902Z,6.55
2017-10-22T00:53:49.169Z,7.40
2017-10-22T00:53:53.418Z,8.27
2017-10-22T00:53:57.664Z,7.80
2017-10-22T00:54:01.942Z,7.65
2017-10-22T00:54:06.149Z,7.90
2017-10-22T00:54:10.419Z,8.30
2017-10-22T00:54:14.695Z,8.75
2017-10-22T00:54:18.964Z,8.90
2017-10-22T00:54:23.211Z,8.83
2017-10-22T00:54:27.473Z,8.95
2017-10-22T00:54:31.685Z,8.85
2017-10-22T00:54:36.687Z,8.90
2017-10-22T00:54:40.915Z,9.07
2017-10-22T00:54:45.187Z,9.07
2017-10-22T00:54:49.432Z,8.65
2017-10-22T00:54:53.661Z,7.60
2017-10-22T00:54:58.708Z,7.45
2017-10-22T00:55:02.945Z,7.70
2017-10-22T00:55:07.204Z,7.50
2017-10-22T00:55:11.487Z,7.00
2017-10-22T00:55:15.721Z,7.45
2017-10-22T00:55:20.743Z,7.27
2017-10-22T00:55:24.975Z,7.50
2017-10-22T00:55:29.225Z,7.40
2017-10-22T00:55:33.505Z,7.25
2017-10-22T00:55:37.763Z,7.70
2017-10-22T00:55:42.088Z,7.87
2017-10-22T00:55:46.342Z,7.65
2017-10-22T00:55:51.376Z,8.20
2017-10-22T00:55:55.594Z,8.13
2017-10-22T00:55:59.814Z,8.77
2017-10-22T00:56:04.131Z,8.80
2017-10-22T00:56:08.408Z,9.05
2017-10-22T00:56:12.657Z,8.70
2017-10-22T00:56:16.937Z,8.00
2017-10-22T00:56:21.205Z,8.25
2017-10-22T00:56:25.446Z,8.90
2017-10-22T00:56:29.703Z,8.80
2017-10-22T00:56:33.933Z,9.20
2017-10-22T00:56:38.258Z,8.85
2017-10-22T00:56:42.524Z,8.60
2017-10-22T00:56:46.772Z,8.60
2017-10-22T00:56:51.002Z,8.75
2017-10-22T00:56:55.312Z,8.95
2017-10-22T00:56:59.555Z,8.30
2017-10-22T00:57:03.791Z,8.60
2017-10-22T00:57:08.834Z,8.30
2017-10-22T00:57:13.070Z,8.37
2017-10-22T00:57:17.331Z,8.35
2017-10-22T00:57:21.615Z,7.97
2017-10-22T00:57:26.636Z,7.40
2017-10-22T00:57:30.876Z,8.10
2017-10-22T00:57:35.162Z,7.95
2017-10-22T00:57:39.403Z,8.47
2017-10-22T00:57:44.434Z,8.70
2017-10-22T00:57:49.459Z,8.23
2017-10-22T00:57:53.702Z,8.13
2017-10-22T00:57:57.936Z,8.40
2017-10-22T00:58:02.966Z,8.15
2017-10-22T00:58:07.981Z,7.87
2017-10-22T00:58:12.220Z,8.30
2017-10-22T00:58:16.494Z,8.50
2017-10-22T00:58:20.742Z,8.60
2017-10-22T00:58:25.075Z,8.70
2017-10-22T00:58:30.172Z,7.97
2017-10-22T00:58:34.479Z,7.67
2017-10-22T00:58:38.804Z,7.00
2017-10-22T00:58:43.024Z,7.50
2017-10-22T00:58:47.273Z,7.70
2017-10-22T00:58:51.532Z,7.75
2017-10-22T00:58:55.818Z,7.70
2017-10-22T00:59:00.808Z,7.50
2017-10-22T00:59:05.157Z,7.17
2017-10-22T00:59:10.192Z,7.25
2017-10-22T00:59:15.741Z,7.17
2017-10-22T00:59:19.980Z,6.55
2017-10-22T00:59:24.971Z,6.45
2017-10-22T00:59:29.275Z,6.63
2017-10-22T00:59:33.519Z,7.20
2017-10-22T00:59:37.753Z,7.60
2017-10-22T00:59:42.060Z,7.10
2017-10-22T00:59:46.306Z,6.85
2017-10-22T00:59:51.319Z,6.40
2017-10-22T00:59:56.315Z,6.43
2017-10-22T01:00:00.571Z,6.90
2017-10-22T01:00:04.816Z,7.10
2017-10-22T01:00:09.206Z,6.95
2017-10-22T01:00:13.467Z,6.85
2017-10-22T01:00:17.698Z,7.27
2017-10-22T01:00:22.029Z,7.50
2017-10-22T01:00:26.253Z,7.45
2017-10-22T01:00:30.489Z,7.40
2017-10-22T01:00:34.749Z,8.50
2017-10-22T01:00:39.108Z,9.10
2017-10-22T01:00:43.325Z,9.30
2017-10-22T01:00:48.357Z,10.10
2017-10-22T01:00:53.385Z,10.47
2017-10-22T01:00:57.648Z,10.20
2017-10-22T01:01:01.875Z,10.25
2017-10-22T01:01:06.882Z,10.35
2017-10-22T01:01:11.894Z,10.23
2017-10-22T01:01:16.136Z,10.10
2017-10-22T01:01:20.412Z,10.15
2017-10-22T01:01:25.467Z,10.63
2017-10-22T01:01:29.721Z,10.40
2017-10-22T01:01:33.956Z,9.10
2017-10-22T01:01:38.185Z,8.35
2017-10-22T01:01:42.492Z,8.37
2017-10-22T01:01:46.725Z,7.90
2017-10-22T01:01:50.950Z,7.45